sensor_id;sensor_type;location;lat;lon;timestamp;pressure;altitude;pressure_sealevel;temperature;humidity
67052;BME280;53957;47.222;18.670;2024-03-08T05:05:49;100503.91;;;4.07;100.00
67052;BME280;53957;47.222;18.670;2024-03-08T05:08:53;100502.44;;;4.11;100.00
67052;BME280;53957;47.222;18.670;2024-03-08T05:11:55;100502.63;;;4.22;100.00
67052;BME280;53957;47.222;18.670;2024-03-08T05:15:01;100505.63;;;4.25;100.00
67052;BME280;53957;47.222;18.670;2024-03-08T05:18:05;100503.66;;;4.21;100.00
67052;BME280;53957;47.222;18.670;2024-03-08T05:21:08;100508.94;;;4.32;100.00
67052;BME280;53957;47.222;18.670;2024-03-08T05:24:12;100505.41;;;4.15;100.00
67052;BME280;53957;47.222;18.670;2024-03-08T05:27:16;100503.47;;;4.10;100.00
67052;BME280;53957;47.222;18.670;2024-03-08T05:30:19;100510.91;;;4.13;100.00
67052;BME280;53957;47.222;18.670;2024-03-08T05:33:24;100508.84;;;4.27;100.00
67052;BME280;53957;47.222;18.670;2024-03-08T05:36:27;100509.44;;;4.17;100.00
67052;BME280;53957;47.222;18.670;2024-03-08T05:39:30;100513.78;;;4.24;100.00
67052;BME280;53957;47.222;18.670;2024-03-08T05:42:33;100512.28;;;4.16;100.00
67052;BME280;53957;47.222;18.670;2024-03-08T05:45:37;100514.38;;;4.14;100.00
67052;BME280;53957;47.222;18.670;2024-03-08T05:48:39;100520.91;;;4.11;100.00
67052;BME280;53957;47.222;18.670;2024-03-08T05:51:43;100522.16;;;4.21;100.00
67052;BME280;53957;47.222;18.670;2024-03-08T05:54:46;100527.09;;;4.29;100.00
67052;BME280;53957;47.222;18.670;2024-03-08T05:57:50;100527.91;;;4.17;100.00
67052;BME280;53957;47.222;18.670;2024-03-08T06:00:52;100531.09;;;4.31;100.00
67052;BME280;53957;47.222;18.670;2024-03-08T06:03:56;100533.19;;;4.17;100.00
67052;BME280;53957;47.222;18.670;2024-03-08T06:06:59;100535.25;;;4.27;100.00
67052;BME280;53957;47.222;18.670;2024-03-08T06:10:02;100528.47;;;4.19;100.00
67052;BME280;53957;47.222;18.670;2024-03-08T06:13:06;100538.56;;;4.23;100.00
67052;BME280;53957;47.222;18.670;2024-03-08T06:16:10;100535.47;;;4.26;100.00
67052;BME280;53957;47.222;18.670;2024-03-08T06:19:13;100541.22;;;4.23;100.00
67052;BME280;53957;47.222;18.670;2024-03-08T06:22:16;100538.91;;;4.14;100.00
67052;BME280;53957;47.222;18.670;2024-03-08T06:25:19;100545.22;;;4.25;100.00
67052;BME280;53957;47.222;18.670;2024-03-08T06:28:24;100545.47;;;4.24;100.00
67052;BME280;53957;47.222;18.670;2024-03-08T06:31:27;100546.59;;;4.28;100.00
67052;BME280;53957;47.222;18.670;2024-03-08T06:34:32;100548.09;;;4.24;100.00
67052;BME280;53957;47.222;18.670;2024-03-08T06:37:37;100549.00;;;4.29;100.00
67052;BME280;53957;47.222;18.670;2024-03-08T06:40:40;100553.69;;;4.39;100.00
67052;BME280;53957;47.222;18.670;2024-03-08T06:43:47;100546.53;;;4.51;100.00
67052;BME280;53957;47.222;18.670;2024-03-08T06:46:52;100555.31;;;4.40;100.00
67052;BME280;53957;47.222;18.670;2024-03-08T06:49:57;100560.59;;;4.40;100.00
67052;BME280;53957;47.222;18.670;2024-03-08T06:53:00;100558.28;;;4.44;100.00
67052;BME280;53957;47.222;18.670;2024-03-08T06:56:04;100565.87;;;4.40;100.00
67052;BME280;53957;47.222;18.670;2024-03-08T06:59:07;100567.47;;;4.41;100.00
67052;BME280;53957;47.222;18.670;2024-03-08T07:02:15;100564.09;;;4.58;100.00
67052;BME280;53957;47.222;18.670;2024-03-08T07:05:19;100557.28;;;4.74;100.00
67052;BME280;53957;47.222;18.670;2024-03-08T07:08:22;100558.19;;;4.79;100.00
67052;BME280;53957;47.222;18.670;2024-03-08T07:11:26;100561.53;;;4.75;100.00
67052;BME280;53957;47.222;18.670;2024-03-08T07:14:28;100565.81;;;4.64;100.00
67052;BME280;53957;47.222;18.670;2024-03-08T07:17:32;100568.13;;;4.60;100.00
67052;BME280;53957;47.222;18.670;2024-03-08T07:20:38;100559.97;;;4.62;100.00
67052;BME280;53957;47.222;18.670;2024-03-08T07:23:42;100557.66;;;4.65;100.00
67052;BME280;53957;47.222;18.670;2024-03-08T07:27:04;100557.44;;;4.55;100.00
67052;BME280;53957;47.222;18.670;2024-03-08T07:30:09;100562.13;;;4.65;100.00
67052;BME280;53957;47.222;18.670;2024-03-08T07:33:15;100564.19;;;4.63;100.00
67052;BME280;53957;47.222;18.670;2024-03-08T07:36:19;100561.72;;;4.85;100.00
67052;BME280;53957;47.222;18.670;2024-03-08T07:39:22;100560.25;;;4.77;100.00
67052;BME280;53957;47.222;18.670;2024-03-08T07:42:27;100557.03;;;4.75;100.00
67052;BME280;53957;47.222;18.670;2024-03-08T07:45:31;100561.25;;;4.88;100.00
67052;BME280;53957;47.222;18.670;2024-03-08T07:48:34;100564.78;;;4.94;100.00
67052;BME280;53957;47.222;18.670;2024-03-08T07:51:39;100573.66;;;4.88;100.00
67052;BME280;53957;47.222;18.670;2024-03-08T07:54:42;100567.66;;;4.92;100.00
67052;BME280;53957;47.222;18.670;2024-03-08T07:57:46;100568.28;;;4.82;100.00
67052;BME280;53957;47.222;18.670;2024-03-08T08:00:50;100567.88;;;5.03;100.00
67052;BME280;53957;47.222;18.670;2024-03-08T08:03:54;100571.12;;;4.93;100.00
67052;BME280;53957;47.222;18.670;2024-03-08T08:06:56;100572.59;;;5.00;100.00
67052;BME280;53957;47.222;18.670;2024-03-08T08:09:59;100574.19;;;5.02;100.00
67052;BME280;53957;47.222;18.670;2024-03-08T08:13:03;100573.72;;;5.05;100.00
67052;BME280;53957;47.222;18.670;2024-03-08T08:16:09;100574.44;;;5.00;100.00
67052;BME280;53957;47.222;18.670;2024-03-08T08:19:16;100579.16;;;4.98;100.00
67052;BME280;53957;47.222;18.670;2024-03-08T08:22:19;100580.56;;;5.18;100.00
67052;BME280;53957;47.222;18.670;2024-03-08T08:25:22;100581.84;;;5.15;100.00
67052;BME280;53957;47.222;18.670;2024-03-08T08:28:30;100574.53;;;5.05;100.00
67052;BME280;53957;47.222;18.670;2024-03-08T08:31:34;100571.22;;;4.98;100.00
67052;BME280;53957;47.222;18.670;2024-03-08T08:34:38;100571.34;;;4.91;100.00
67052;BME280;53957;47.222;18.670;2024-03-08T18:26:00;100461.94;;;4.92;100.00
67052;BME280;53957;47.222;18.670;2024-03-08T18:29:04;100465.78;;;4.84;100.00
67052;BME280;53957;47.222;18.670;2024-03-08T18:32:08;100457.78;;;4.79;100.00
67052;BME280;53957;47.222;18.670;2024-03-08T18:35:11;100464.34;;;4.94;100.00
67052;BME280;53957;47.222;18.670;2024-03-08T18:38:14;100464.03;;;5.07;100.00
67052;BME280;53957;47.222;18.670;2024-03-08T18:41:27;100466.44;;;4.92;100.00
67052;BME280;53957;47.222;18.670;2024-03-08T18:44:30;100458.63;;;4.85;100.00
67052;BME280;53957;47.222;18.670;2024-03-08T18:47:34;100459.78;;;4.89;100.00
67052;BME280;53957;47.222;18.670;2024-03-08T18:50:37;100463.53;;;4.93;100.00
67052;BME280;53957;47.222;18.670;2024-03-08T18:53:42;100463.50;;;4.76;100.00
67052;BME280;53957;47.222;18.670;2024-03-08T18:56:46;100458.81;;;4.78;100.00
67052;BME280;53957;47.222;18.670;2024-03-08T18:59:49;100457.81;;;4.67;100.00
67052;BME280;53957;47.222;18.670;2024-03-08T19:02:56;100456.72;;;4.51;100.00
67052;BME280;53957;47.222;18.670;2024-03-08T19:06:04;100460.13;;;4.64;100.00
67052;BME280;53957;47.222;18.670;2024-03-08T19:09:07;100466.72;;;4.78;100.00
67052;BME280;53957;47.222;18.670;2024-03-08T19:12:18;100462.47;;;4.77;100.00
67052;BME280;53957;47.222;18.670;2024-03-08T19:15:25;100461.47;;;4.49;100.00
67052;BME280;53957;47.222;18.670;2024-03-08T19:18:29;100461.00;;;4.41;100.00
67052;BME280;53957;47.222;18.670;2024-03-08T19:21:33;100464.41;;;4.53;100.00
67052;BME280;53957;47.222;18.670;2024-03-08T19:24:36;100475.38;;;4.74;100.00
67052;BME280;53957;47.222;18.670;2024-03-08T19:27:39;100466.03;;;4.54;100.00
67052;BME280;53957;47.222;18.670;2024-03-08T19:30:45;100460.41;;;4.50;100.00
67052;BME280;53957;47.222;18.670;2024-03-08T19:33:59;100461.19;;;4.80;100.00
67052;BME280;53957;47.222;18.670;2024-03-08T19:37:23;100450.59;;;4.63;100.00
67052;BME280;53957;47.222;18.670;2024-03-08T19:40:29;100459.47;;;4.86;100.00
67052;BME280;53957;47.222;18.670;2024-03-08T19:43:38;100449.12;;;5.01;100.00
67052;BME280;53957;47.222;18.670;2024-03-08T19:46:42;100449.84;;;4.79;100.00
67052;BME280;53957;47.222;18.670;2024-03-08T19:49:46;100451.38;;;4.92;100.00
67052;BME280;53957;47.222;18.670;2024-03-08T19:52:53;100452.72;;;4.95;100.00
67052;BME280;53957;47.222;18.670;2024-03-08T19:55:57;100452.12;;;4.59;100.00
67052;BME280;53957;47.222;18.670;2024-03-08T19:59:01;100444.81;;;4.49;100.00
67052;BME280;53957;47.222;18.670;2024-03-08T20:02:04;100447.59;;;4.42;100.00
67052;BME280;53957;47.222;18.670;2024-03-08T20:05:09;100448.28;;;4.66;100.00
67052;BME280;53957;47.222;18.670;2024-03-08T20:08:12;100441.81;;;4.45;100.00
67052;BME280;53957;47.222;18.670;2024-03-08T20:11:17;100446.22;;;4.68;100.00
67052;BME280;53957;47.222;18.670;2024-03-08T20:14:22;100446.50;;;4.55;100.00
67052;BME280;53957;47.222;18.670;2024-03-08T20:17:28;100440.97;;;4.57;100.00
67052;BME280;53957;47.222;18.670;2024-03-08T20:20:31;100440.44;;;4.55;100.00
67052;BME280;53957;47.222;18.670;2024-03-08T20:23:35;100436.97;;;4.54;100.00
67052;BME280;53957;47.222;18.670;2024-03-08T20:26:44;100441.97;;;4.67;100.00
67052;BME280;53957;47.222;18.670;2024-03-08T20:29:47;100444.47;;;4.74;100.00
67052;BME280;53957;47.222;18.670;2024-03-08T20:32:51;100445.03;;;4.76;100.00
67052;BME280;53957;47.222;18.670;2024-03-08T20:35:58;100443.41;;;4.75;100.00
67052;BME280;53957;47.222;18.670;2024-03-08T20:39:01;100453.81;;;4.65;100.00
67052;BME280;53957;47.222;18.670;2024-03-08T20:42:04;100452.81;;;4.54;100.00
67052;BME280;53957;47.222;18.670;2024-03-08T20:45:08;100448.72;;;4.46;100.00
67052;BME280;53957;47.222;18.670;2024-03-08T20:48:11;100447.16;;;4.62;100.00
67052;BME280;53957;47.222;18.670;2024-03-08T20:51:18;100440.59;;;4.65;100.00
67052;BME280;53957;47.222;18.670;2024-03-08T20:54:22;100444.25;;;4.93;100.00
67052;BME280;53957;47.222;18.670;2024-03-08T20:57:25;100445.62;;;5.12;100.00
67052;BME280;53957;47.222;18.670;2024-03-08T21:00:29;100447.47;;;5.12;100.00
67052;BME280;53957;47.222;18.670;2024-03-08T21:03:44;100442.66;;;4.92;100.00
67052;BME280;53957;47.222;18.670;2024-03-08T21:06:47;100434.72;;;5.09;100.00
67052;BME280;53957;47.222;18.670;2024-03-08T21:09:51;100439.19;;;5.08;100.00
67052;BME280;53957;47.222;18.670;2024-03-08T21:12:55;100431.03;;;5.10;100.00
67052;BME280;53957;47.222;18.670;2024-03-08T21:15:58;100422.69;;;5.01;100.00
67052;BME280;53957;47.222;18.670;2024-03-08T21:19:02;100412.75;;;5.08;100.00
67052;BME280;53957;47.222;18.670;2024-03-08T21:22:05;100415.25;;;4.98;100.00
67052;BME280;53957;47.222;18.670;2024-03-08T21:25:10;100417.09;;;4.97;100.00
67052;BME280;53957;47.222;18.670;2024-03-08T21:28:13;100408.66;;;4.83;100.00
67052;BME280;53957;47.222;18.670;2024-03-08T21:31:18;100412.63;;;4.98;100.00
67052;BME280;53957;47.222;18.670;2024-03-08T21:34:22;100407.78;;;4.95;100.00
67052;BME280;53957;47.222;18.670;2024-03-08T21:37:26;100408.59;;;4.95;100.00
67052;BME280;53957;47.222;18.670;2024-03-08T21:40:29;100415.72;;;4.95;100.00
67052;BME280;53957;47.222;18.670;2024-03-08T21:43:34;100412.75;;;4.91;100.00
67052;BME280;53957;47.222;18.670;2024-03-08T21:46:38;100407.63;;;4.84;100.00
67052;BME280;53957;47.222;18.670;2024-03-08T21:49:41;100405.47;;;4.81;100.00
67052;BME280;53957;47.222;18.670;2024-03-08T21:52:48;100407.31;;;4.81;100.00
67052;BME280;53957;47.222;18.670;2024-03-08T22:02:58;100398.50;;;4.92;100.00
67052;BME280;53957;47.222;18.670;2024-03-08T22:06:04;100399.72;;;4.84;100.00
67052;BME280;53957;47.222;18.670;2024-03-08T22:09:13;100399.22;;;4.71;100.00
67052;BME280;53957;47.222;18.670;2024-03-08T22:12:17;100394.91;;;4.64;100.00
67052;BME280;53957;47.222;18.670;2024-03-08T22:15:20;100398.94;;;4.55;100.00
67052;BME280;53957;47.222;18.670;2024-03-08T22:18:25;100395.66;;;4.48;100.00
67052;BME280;53957;47.222;18.670;2024-03-08T22:21:33;100396.41;;;4.77;100.00
67052;BME280;53957;47.222;18.670;2024-03-08T22:24:37;100400.91;;;4.94;100.00
67052;BME280;53957;47.222;18.670;2024-03-08T22:27:41;100404.09;;;4.62;100.00
67052;BME280;53957;47.222;18.670;2024-03-08T22:30:45;100405.00;;;5.02;100.00
67052;BME280;53957;47.222;18.670;2024-03-08T22:33:49;100396.00;;;4.68;100.00
67052;BME280;53957;47.222;18.670;2024-03-08T22:36:54;100395.69;;;4.65;100.00
67052;BME280;53957;47.222;18.670;2024-03-08T22:39:58;100402.56;;;4.66;100.00
67052;BME280;53957;47.222;18.670;2024-03-08T22:43:04;100396.31;;;4.55;100.00
67052;BME280;53957;47.222;18.670;2024-03-08T22:46:10;100406.63;;;4.57;100.00
67052;BME280;53957;47.222;18.670;2024-03-08T22:49:14;100408.91;;;4.65;100.00
67052;BME280;53957;47.222;18.670;2024-03-08T22:52:16;100412.66;;;4.69;100.00
67052;BME280;53957;47.222;18.670;2024-03-08T22:55:20;100400.34;;;4.75;100.00
67052;BME280;53957;47.222;18.670;2024-03-08T22:58:24;100415.50;;;4.79;100.00
67052;BME280;53957;47.222;18.670;2024-03-08T23:01:27;100410.28;;;4.84;100.00
67052;BME280;53957;47.222;18.670;2024-03-08T23:04:36;100407.94;;;4.71;100.00
67052;BME280;53957;47.222;18.670;2024-03-08T23:07:39;100404.19;;;4.67;100.00
67052;BME280;53957;47.222;18.670;2024-03-08T23:10:43;100405.59;;;4.58;100.00
67052;BME280;53957;47.222;18.670;2024-03-08T23:13:46;100406.34;;;4.70;100.00
67052;BME280;53957;47.222;18.670;2024-03-08T23:16:49;100404.22;;;4.55;100.00
67052;BME280;53957;47.222;18.670;2024-03-08T23:19:53;100412.06;;;4.50;100.00
67052;BME280;53957;47.222;18.670;2024-03-08T23:22:59;100410.13;;;4.45;100.00
67052;BME280;53957;47.222;18.670;2024-03-08T23:26:07;100416.06;;;4.53;100.00
67052;BME280;53957;47.222;18.670;2024-03-08T23:29:10;100415.63;;;4.56;100.00
67052;BME280;53957;47.222;18.670;2024-03-08T23:32:13;100422.47;;;4.57;100.00
67052;BME280;53957;47.222;18.670;2024-03-08T23:35:17;100414.97;;;4.48;100.00
67052;BME280;53957;47.222;18.670;2024-03-08T23:38:22;100426.09;;;4.67;100.00
67052;BME280;53957;47.222;18.670;2024-03-08T23:41:25;100419.09;;;4.73;100.00
67052;BME280;53957;47.222;18.670;2024-03-08T23:44:28;100422.28;;;4.75;100.00
67052;BME280;53957;47.222;18.670;2024-03-08T23:47:32;100415.88;;;4.71;100.00
67052;BME280;53957;47.222;18.670;2024-03-08T23:50:36;100419.94;;;4.62;100.00
67052;BME280;53957;47.222;18.670;2024-03-08T23:53:40;100417.78;;;4.59;100.00
67052;BME280;53957;47.222;18.670;2024-03-08T23:56:44;100417.94;;;4.52;100.00
67052;BME280;53957;47.222;18.670;2024-03-08T23:59:47;100417.19;;;4.57;100.00
